createdAt,value
2022-08-25T00:00:17.970Z,99645.06
2022-08-25T00:02:55.223Z,99647.50
2022-08-25T00:05:29.358Z,99648.06
2022-08-25T00:08:01.982Z,99638.47
2022-08-25T00:10:32.129Z,99641.03
2022-08-25T00:13:01.051Z,99637.91
2022-08-25T00:15:31.307Z,99641.28
2022-08-25T00:18:01.014Z,99645.06
2022-08-25T00:20:31.118Z,99641.75
2022-08-25T00:22:59.790Z,99634.69
2022-08-25T00:25:28.461Z,99640.34
2022-08-25T00:27:59.131Z,99636.22
2022-08-25T00:30:28.083Z,99630.38
2022-08-25T00:32:57.439Z,99633.19
2022-08-25T00:35:27.343Z,99636.47
2022-08-25T00:37:56.463Z,99628.53
2022-08-25T00:40:27.809Z,99628.47
2022-08-25T00:42:58.177Z,99634.69
2022-08-25T00:45:27.550Z,99635.81
2022-08-25T00:47:59.920Z,99636.94
2022-08-25T00:50:29.461Z,99628.75
2022-08-25T00:53:00.396Z,99626.19
2022-08-25T00:55:31.547Z,99637.97
2022-08-25T00:58:06.470Z,99635.91
2022-08-25T01:00:39.385Z,99640.03
2022-08-25T01:03:08.405Z,99631.28
2022-08-25T01:05:37.869Z,99625.25
2022-08-25T01:08:07.809Z,99627.91
2022-08-25T01:10:41.535Z,99619.22
2022-08-25T01:13:16.870Z,99627.22
2022-08-25T01:15:46.362Z,99627.13
2022-08-25T01:18:15.658Z,99624.69
2022-08-25T01:20:44.409Z,99627.97
2022-08-25T01:23:14.754Z,99625.72
2022-08-25T01:25:48.655Z,99630.91
2022-08-25T01:28:18.040Z,99629.84
2022-08-25T01:30:47.434Z,99626.09
2022-08-25T01:33:17.235Z,99632.22
2022-08-25T01:35:46.741Z,99621.00
2022-08-25T01:38:17.520Z,99624.97
2022-08-25T01:40:46.515Z,99615.25
2022-08-25T01:43:22.897Z,99621.38
2022-08-25T01:45:51.910Z,99621.75
2022-08-25T01:48:20.719Z,99621.47
2022-08-25T01:50:49.354Z,99621.84
2022-08-25T01:53:24.833Z,99626.00
2022-08-25T01:55:55.393Z,99619.69
2022-08-25T01:58:26.524Z,99624.00
2022-08-25T02:00:57.283Z,99630.13
2022-08-25T02:03:26.535Z,99625.25
2022-08-25T02:05:56.033Z,99623.53
2022-08-25T02:08:26.355Z,99626.28
2022-08-25T02:10:58.488Z,99617.12
2022-08-25T02:13:31.421Z,99620.06
2022-08-25T02:16:01.984Z,99617.38
2022-08-25T02:18:31.032Z,99614.66
2022-08-25T02:20:59.667Z,99617.59
2022-08-25T02:23:29.964Z,99612.50
2022-08-25T02:25:58.607Z,99611.66
2022-08-25T02:28:27.385Z,99607.22
2022-08-25T02:31:01.516Z,99609.12
2022-08-25T02:33:30.493Z,99614.41
2022-08-25T02:36:00.321Z,99614.28
2022-08-25T02:38:30.805Z,99607.69
2022-08-25T02:41:01.072Z,99609.88
2022-08-25T02:43:30.149Z,99615.91
2022-08-25T02:45:59.933Z,99608.56
2022-08-25T02:48:28.603Z,99604.31
2022-08-25T02:51:01.164Z,99604.69
2022-08-25T02:53:31.412Z,99603.44
2022-08-25T02:56:00.170Z,99603.91
2022-08-25T02:58:29.140Z,99602.97
2022-08-25T03:01:00.423Z,99603.25
2022-08-25T03:03:29.536Z,99604.28
2022-08-25T03:05:58.515Z,99602.56
2022-08-25T03:08:27.313Z,99612.78
2022-08-25T03:10:57.293Z,99605.88
2022-08-25T03:13:26.195Z,99605.59
2022-08-25T03:15:55.314Z,99600.69
2022-08-25T03:18:24.748Z,99599.66
2022-08-25T03:20:54.140Z,99598.00
2022-08-25T03:23:22.878Z,99588.06
2022-08-25T03:26:09.344Z,99587.50
2022-08-25T03:28:39.659Z,99594.31
2022-08-25T03:31:09.049Z,99594.47
2022-08-25T03:33:38.724Z,99601.62
2022-08-25T03:36:08.662Z,99599.75
2022-08-25T03:38:38.404Z,99608.59
2022-08-25T03:41:17.518Z,99608.81
2022-08-25T03:43:48.188Z,99605.88
2022-08-25T03:46:20.411Z,99605.59
2022-08-25T03:48:49.234Z,99609.28
2022-08-25T03:51:22.474Z,99591.72
2022-08-25T03:53:51.769Z,99607.28
2022-08-25T03:56:20.790Z,99599.84
2022-08-25T03:58:51.169Z,99597.00
2022-08-25T04:01:20.270Z,99599.81
2022-08-25T04:03:49.288Z,99597.69
2022-08-25T04:06:19.886Z,99598.53
2022-08-25T04:08:48.922Z,99603.25
2022-08-25T04:11:21.333Z,99602.03
2022-08-25T04:13:52.981Z,99605.50
2022-08-25T04:16:24.409Z,99609.72
2022-08-25T04:18:54.162Z,99609.09
2022-08-25T04:21:24.008Z,99615.66
2022-08-25T04:23:53.871Z,99611.72
2022-08-25T04:26:24.062Z,99612.94
2022-08-25T04:28:55.183Z,99619.09
2022-08-25T04:31:23.890Z,99612.00
2022-08-25T04:33:53.081Z,99609.28
2022-08-25T04:36:22.662Z,99614.75
2022-08-25T04:38:51.658Z,99612.06
2022-08-25T04:41:24.298Z,99611.25
2022-08-25T04:43:54.357Z,99610.44
2022-08-25T04:46:27.288Z,99612.37
2022-08-25T04:48:57.348Z,99612.37
2022-08-25T04:51:30.098Z,99606.00
2022-08-25T04:54:01.931Z,99610.03
2022-08-25T04:56:31.125Z,99614.69
2022-08-25T04:59:04.431Z,99610.25
2022-08-25T05:01:33.336Z,99605.16
2022-08-25T05:04:04.236Z,99606.66
2022-08-25T05:06:33.472Z,99610.31
2022-08-25T05:09:03.516Z,99612.63
2022-08-25T05:11:34.584Z,99615.06
2022-08-25T05:14:05.622Z,99615.25
2022-08-25T05:16:35.179Z,99609.97
2022-08-25T05:19:04.824Z,99603.72
2022-08-25T05:21:33.506Z,99606.56
2022-08-25T05:24:03.348Z,99608.97
2022-08-25T05:26:33.057Z,99598.78
2022-08-25T05:29:05.070Z,99606.53
2022-08-25T05:31:38.466Z,99605.13
2022-08-25T05:34:12.194Z,99605.59
2022-08-25T05:36:43.454Z,99610.94
2022-08-25T05:39:12.531Z,99611.69
2022-08-25T05:41:43.492Z,99610.13
2022-08-25T05:44:19.081Z,99605.78
2022-08-25T05:46:51.243Z,99599.78
2022-08-25T05:49:20.246Z,99609.66
2022-08-25T05:51:48.926Z,99605.22
2022-08-25T05:54:17.573Z,99606.41
2022-08-25T05:56:46.585Z,99597.69
2022-08-25T05:59:16.624Z,99601.97
2022-08-25T06:02:02.942Z,99600.81
2022-08-25T06:04:32.461Z,99599.78
2022-08-25T06:07:01.161Z,99603.47
2022-08-25T06:09:29.866Z,99604.87
2022-08-25T06:11:58.899Z,99597.78
2022-08-25T06:14:28.891Z,99604.50
2022-08-25T06:16:57.496Z,99608.81
2022-08-25T06:19:26.447Z,99607.53
2022-08-25T06:21:56.360Z,99606.06
2022-08-25T06:24:25.852Z,99607.16
2022-08-25T06:26:54.909Z,99606.91
2022-08-25T06:29:24.301Z,99605.69
2022-08-25T06:31:54.412Z,99605.41
2022-08-25T06:34:24.301Z,99607.44
2022-08-25T06:36:55.702Z,99616.81
2022-08-25T06:39:25.093Z,99615.41
2022-08-25T06:41:54.260Z,99622.69
2022-08-25T06:44:23.503Z,99625.50
2022-08-25T06:46:52.509Z,99625.75
2022-08-25T06:49:22.950Z,99621.94
2022-08-25T06:51:51.928Z,99625.41
2022-08-25T06:54:20.670Z,99629.41
2022-08-25T06:56:49.652Z,99623.50
2022-08-25T06:59:18.967Z,99629.06
2022-08-25T07:01:49.716Z,99626.87
2022-08-25T07:04:19.248Z,99632.34
2022-08-25T07:06:49.238Z,99631.25
2022-08-25T07:09:18.408Z,99625.84
2022-08-25T07:11:47.415Z,99631.91
2022-08-25T07:14:17.432Z,99631.06
2022-08-25T07:16:49.607Z,99633.13
2022-08-25T07:19:21.468Z,99628.19
2022-08-25T07:21:55.192Z,99631.25
2022-08-25T07:24:24.399Z,99632.94
2022-08-25T07:26:53.614Z,99625.91
2022-08-25T07:29:32.367Z,99629.53
2022-08-25T07:32:02.613Z,99627.50
2022-08-25T07:37:49.274Z,99629.41
2022-08-25T07:40:22.492Z,99636.66
2022-08-25T07:42:56.777Z,99629.66
2022-08-25T07:45:30.766Z,99633.19
2022-08-25T07:48:03.506Z,99630.84
2022-08-25T07:50:33.499Z,99620.53
2022-08-25T07:53:03.777Z,99614.44
2022-08-25T07:55:32.816Z,99619.50
2022-08-25T07:58:01.401Z,99623.38
2022-08-25T08:00:33.292Z,99622.75
2022-08-25T08:03:03.952Z,99612.00
2022-08-25T08:05:32.882Z,99618.38
2022-08-25T08:08:03.500Z,99619.94
2022-08-25T08:13:21.118Z,99618.00
2022-08-25T08:15:50.163Z,99628.44
2022-08-25T08:18:18.866Z,99627.25
2022-08-25T08:20:48.435Z,99627.16
2022-08-25T08:23:19.060Z,99622.81
2022-08-25T08:25:48.237Z,99618.59
2022-08-25T08:28:17.120Z,99626.09
2022-08-25T08:30:53.191Z,99621.38
2022-08-25T08:33:24.397Z,99622.09
2022-08-25T08:36:00.603Z,99623.47
2022-08-25T08:38:36.544Z,99620.44
2022-08-25T08:41:33.946Z,99619.37
2022-08-25T08:44:13.757Z,99617.50
2022-08-25T08:46:47.425Z,99626.94
2022-08-25T08:49:23.128Z,99616.59
2022-08-25T08:52:00.480Z,99614.13
2022-08-25T08:54:35.453Z,99617.19
2022-08-25T08:57:09.831Z,99609.12
2022-08-25T08:59:45.064Z,99611.38
2022-08-25T09:02:39.514Z,99614.38
2022-08-25T09:05:15.104Z,99613.16
2022-08-25T09:07:48.372Z,99609.69
2022-08-25T09:10:19.711Z,99603.16
2022-08-25T09:12:59.168Z,99608.47
2022-08-25T09:15:51.165Z,99609.06
2022-08-25T09:18:28.923Z,99604.47
2022-08-25T09:21:09.598Z,99591.16
2022-08-25T09:23:47.560Z,99594.69
2022-08-25T09:26:27.392Z,99588.94
2022-08-25T09:29:03.282Z,99589.19
2022-08-25T09:31:38.792Z,99590.47
2022-08-25T09:34:20.367Z,99580.75
2022-08-25T09:36:52.903Z,99578.94
2022-08-25T09:39:23.461Z,99575.31
2022-08-25T09:41:56.139Z,99575.88
2022-08-25T09:44:26.459Z,99567.16
2022-08-25T09:46:57.106Z,99567.41
2022-08-25T09:49:40.304Z,99570.25
2022-08-25T09:52:37.447Z,99558.00
2022-08-25T09:55:28.183Z,99558.84
2022-08-25T09:57:59.263Z,99552.84
2022-08-25T10:00:30.780Z,99551.41
2022-08-25T10:03:07.823Z,99550.47
2022-08-25T10:05:49.426Z,99542.25
2022-08-25T10:08:31.527Z,99547.91
2022-08-25T10:11:01.927Z,99545.28
2022-08-25T10:13:36.069Z,99538.94
2022-08-25T10:16:07.996Z,99539.47
2022-08-25T10:19:02.068Z,99543.75
2022-08-25T10:21:30.788Z,99545.44
2022-08-25T10:24:01.713Z,99532.16
2022-08-25T10:26:38.948Z,99525.81
2022-08-25T10:29:15.873Z,99526.91
2022-08-25T10:31:49.457Z,99522.25
2022-08-25T10:34:25.730Z,99522.63
2022-08-25T10:37:11.613Z,99518.78
2022-08-25T10:39:43.168Z,99507.19
2022-08-25T10:42:26.032Z,99511.22
2022-08-25T10:45:25.797Z,99507.94
2022-08-25T10:48:20.986Z,99506.56
2022-08-25T10:50:54.795Z,99508.13
2022-08-25T10:53:29.674Z,99508.53
2022-08-25T10:56:07.114Z,99507.94
2022-08-25T10:59:01.796Z,99503.78
2022-08-25T11:01:44.138Z,99501.88
2022-08-25T11:04:15.669Z,99495.31
2022-08-25T11:06:53.125Z,99487.66
2022-08-25T11:09:26.840Z,99480.31
2022-08-25T11:11:59.422Z,99484.53
2022-08-25T11:14:34.547Z,99482.16
2022-08-25T11:17:08.577Z,99478.19
2022-08-25T11:19:39.472Z,99473.91
2022-08-25T11:22:14.364Z,99475.41
2022-08-25T11:24:55.093Z,99472.81
2022-08-25T11:27:25.502Z,99470.59
2022-08-25T11:30:01.824Z,99463.25
2022-08-25T11:32:35.522Z,99462.56
2022-08-25T11:35:07.971Z,99454.72
2022-08-25T11:37:42.863Z,99453.84
2022-08-25T11:40:50.198Z,99453.97
2022-08-25T11:43:35.828Z,99445.97
2022-08-25T11:46:28.340Z,99446.16
2022-08-25T11:49:07.206Z,99435.91
2022-08-25T11:51:42.631Z,99430.53
2022-08-25T11:54:19.956Z,99431.56
2022-08-25T11:56:58.485Z,99432.56
2022-08-25T12:00:05.025Z,99432.38
2022-08-25T12:02:39.185Z,99433.72
2022-08-25T12:05:12.189Z,99427.84
2022-08-25T12:08:22.772Z,99423.09
2022-08-25T12:10:59.290Z,99421.75
2022-08-25T12:13:40.791Z,99420.16
2022-08-25T12:16:47.946Z,99414.22
2022-08-25T12:19:30.340Z,99413.53
2022-08-25T12:22:38.852Z,99415.06
2022-08-25T12:25:11.676Z,99413.50
2022-08-25T12:27:45.069Z,99409.66
2022-08-25T12:30:20.785Z,99410.50
2022-08-25T12:33:04.865Z,99411.91
2022-08-25T12:35:41.061Z,99402.91
2022-08-25T12:38:13.807Z,99402.03
2022-08-25T12:40:55.924Z,99400.63
2022-08-25T12:43:33.233Z,99396.56
2022-08-25T12:46:34.776Z,99394.06
2022-08-25T12:49:05.648Z,99390.78
2022-08-25T12:51:54.624Z,99390.87
2022-08-25T12:54:34.233Z,99391.63
2022-08-25T12:57:07.217Z,99388.53
2022-08-25T12:59:38.055Z,99392.34
2022-08-25T13:02:51.961Z,99384.84
2022-08-25T13:05:42.694Z,99388.69
2022-08-25T13:08:37.099Z,99384.31
2022-08-25T13:11:12.027Z,99381.66
2022-08-25T13:13:47.591Z,99382.19
2022-08-25T13:16:19.074Z,99370.28
2022-08-25T13:18:51.691Z,99374.75
2022-08-25T13:21:24.330Z,99374.44
2022-08-25T13:24:01.590Z,99370.31
2022-08-25T13:26:36.082Z,99367.38
2022-08-25T13:29:14.573Z,99373.59
2022-08-25T13:31:56.418Z,99374.50
2022-08-25T13:34:30.454Z,99364.31
2022-08-25T13:37:25.671Z,99360.81
2022-08-25T13:40:12.356Z,99358.09
2022-08-25T13:42:42.454Z,99352.47
2022-08-25T13:45:15.814Z,99355.69
2022-08-25T13:47:46.131Z,99361.19
2022-08-25T13:50:22.798Z,99353.00
2022-08-25T13:52:57.342Z,99356.00
2022-08-25T13:55:38.181Z,99355.34
2022-08-25T13:58:24.830Z,99349.22
2022-08-25T14:01:23.186Z,99357.44
2022-08-25T14:04:25.211Z,99357.06
2022-08-25T14:07:14.272Z,99345.91
2022-08-25T14:09:48.423Z,99348.09
2022-08-25T14:12:39.534Z,99355.41
2022-08-25T14:15:13.690Z,99351.00
2022-08-25T14:17:48.013Z,99343.56
2022-08-25T14:20:27.242Z,99343.84
2022-08-25T14:22:58.264Z,99348.62
2022-08-25T14:25:30.308Z,99342.84
2022-08-25T14:28:08.295Z,99334.91
2022-08-25T14:30:49.385Z,99335.72
2022-08-25T14:33:22.360Z,99323.88
2022-08-25T14:35:55.269Z,99331.97
2022-08-25T14:38:24.405Z,99332.75
2022-08-25T14:40:53.922Z,99332.91
2022-08-25T14:43:24.135Z,99328.34
2022-08-25T14:46:02.591Z,99324.63
2022-08-25T14:48:34.336Z,99335.81
2022-08-25T14:51:05.453Z,99328.72
2022-08-25T14:53:34.259Z,99322.28
2022-08-25T14:56:08.399Z,99317.97
2022-08-25T14:58:50.928Z,99321.50
2022-08-25T15:01:28.914Z,99324.84
2022-08-25T15:04:02.241Z,99317.97
2022-08-25T15:06:33.453Z,99318.66
2022-08-25T15:09:11.612Z,99319.53
2022-08-25T15:11:42.344Z,99314.72
2022-08-25T15:14:12.439Z,99316.34
2022-08-25T15:16:42.354Z,99326.44
2022-08-25T15:19:14.619Z,99324.19
2022-08-25T15:21:47.525Z,99321.13
2022-08-25T15:24:17.991Z,99323.63
2022-08-25T15:29:28.005Z,99325.88
2022-08-25T15:31:57.452Z,99318.47
2022-08-25T15:34:26.170Z,99318.66
2022-08-25T15:36:56.225Z,99321.03
2022-08-25T15:39:25.311Z,99313.16
2022-08-25T15:41:54.204Z,99308.16
2022-08-25T15:44:28.990Z,99300.66
2022-08-25T15:46:59.288Z,99298.63
2022-08-25T15:49:29.731Z,99304.41
2022-08-25T15:52:02.231Z,99305.41
2022-08-25T15:54:32.192Z,99305.72
2022-08-25T15:57:01.134Z,99300.03
2022-08-25T15:59:30.821Z,99298.88
2022-08-25T16:02:00.474Z,99302.00
2022-08-25T16:04:30.218Z,99301.00
2022-08-25T16:07:01.586Z,99288.78
2022-08-25T16:09:31.319Z,99291.47
2022-08-25T16:12:05.418Z,99293.78
2022-08-25T16:14:38.097Z,99283.87
2022-08-25T16:17:07.189Z,99286.91
2022-08-25T16:19:38.310Z,99287.56
2022-08-25T16:22:11.247Z,99282.00
2022-08-25T16:24:45.058Z,99285.72
2022-08-25T16:27:14.788Z,99284.50
2022-08-25T16:29:45.590Z,99284.34
2022-08-25T16:32:15.644Z,99287.47
2022-08-25T16:34:44.771Z,99279.19
2022-08-25T16:37:14.786Z,99282.84
2022-08-25T16:39:46.148Z,99281.00
2022-08-25T16:42:15.129Z,99287.47
2022-08-25T16:44:44.178Z,99284.47
2022-08-25T16:47:14.381Z,99286.25
2022-08-25T16:49:46.912Z,99282.91
2022-08-25T16:52:34.703Z,99280.97
2022-08-25T16:55:15.203Z,99284.53
2022-08-25T16:57:47.538Z,99287.16
2022-08-25T17:00:19.311Z,99280.34
2022-08-25T17:02:48.674Z,99296.09
2022-08-25T17:05:18.224Z,99293.84
2022-08-25T17:08:08.746Z,99297.50
2022-08-25T17:10:38.885Z,99296.16
2022-08-25T17:13:08.254Z,99299.09
2022-08-25T17:15:40.832Z,99302.28
2022-08-25T17:18:11.196Z,99292.72
2022-08-25T17:20:42.118Z,99295.50
2022-08-25T17:23:14.093Z,99303.88
2022-08-25T17:25:43.485Z,99296.84
2022-08-25T17:28:13.190Z,99300.66
2022-08-25T17:30:43.248Z,99294.47
2022-08-25T17:33:15.173Z,99303.62
2022-08-25T17:35:45.752Z,99302.63
2022-08-25T17:38:17.098Z,99301.69
2022-08-25T17:40:48.103Z,99301.66
2022-08-25T17:43:17.487Z,99300.28
2022-08-25T17:45:47.887Z,99310.13
2022-08-25T17:48:17.317Z,99308.75
2022-08-25T17:50:46.979Z,99308.91
2022-08-25T17:53:17.411Z,99310.28
2022-08-25T17:55:47.539Z,99308.69
2022-08-25T17:58:17.293Z,99308.37
2022-08-25T18:00:47.078Z,99317.88
2022-08-25T18:03:15.955Z,99313.56
2022-08-25T18:05:45.189Z,99321.00
2022-08-25T18:08:16.124Z,99325.50
2022-08-25T18:10:48.938Z,99319.84
2022-08-25T18:13:17.997Z,99323.91
2022-08-25T18:15:46.977Z,99321.88
2022-08-25T18:18:16.412Z,99320.81
2022-08-25T18:20:46.628Z,99337.63
2022-08-25T18:23:17.709Z,99325.69
2022-08-25T18:25:49.449Z,99331.03
2022-08-25T18:28:18.460Z,99330.50
2022-08-25T18:30:47.305Z,99335.31
2022-08-25T18:33:18.929Z,99331.78
2022-08-25T18:35:47.961Z,99334.88
2022-08-25T18:38:34.485Z,99326.62
2022-08-25T18:41:07.836Z,99330.47
2022-08-25T18:43:37.039Z,99329.47
2022-08-25T18:46:06.404Z,99327.63
2022-08-25T18:48:36.972Z,99338.19
2022-08-25T18:51:07.731Z,99333.97
2022-08-25T18:53:50.047Z,99328.09
2022-08-25T18:56:22.452Z,99329.63
2022-08-25T18:58:51.090Z,99334.84
2022-08-25T19:01:20.779Z,99331.19
2022-08-25T19:03:50.316Z,99336.38
2022-08-25T19:06:19.495Z,99333.56
2022-08-25T19:08:50.029Z,99330.91
2022-08-25T19:11:22.184Z,99333.13
2022-08-25T19:13:53.294Z,99330.63
2022-08-25T19:16:34.832Z,99326.44
2022-08-25T19:19:06.389Z,99326.97
2022-08-25T19:21:36.077Z,99329.31
2022-08-25T19:24:05.387Z,99324.69
2022-08-25T19:26:37.352Z,99325.50
2022-08-25T19:29:12.179Z,99335.00
2022-08-25T19:31:43.255Z,99329.81
2022-08-25T19:34:17.885Z,99322.81
2022-08-25T19:36:48.116Z,99327.19
2022-08-25T19:39:17.168Z,99323.00
2022-08-25T19:41:47.232Z,99319.22
2022-08-25T19:44:18.991Z,99321.47
2022-08-25T19:46:47.801Z,99323.97
2022-08-25T19:49:22.981Z,99319.34
2022-08-25T19:51:53.115Z,99326.22
2022-08-25T19:54:24.817Z,99318.78
2022-08-25T19:56:55.477Z,99323.13
2022-08-25T19:59:40.518Z,99328.06
2022-08-25T20:02:15.448Z,99321.59
2022-08-25T20:04:49.671Z,99324.44
2022-08-25T20:07:19.512Z,99322.69
2022-08-25T20:09:48.752Z,99324.41
2022-08-25T20:12:18.057Z,99319.31
2022-08-25T20:14:49.276Z,99319.91
2022-08-25T20:17:23.798Z,99325.06
2022-08-25T20:19:55.472Z,99321.56
2022-08-25T20:22:26.385Z,99315.09
2022-08-25T20:24:57.953Z,99331.94
2022-08-25T20:27:31.612Z,99327.12
2022-08-25T20:30:03.260Z,99326.88
2022-08-25T20:32:33.683Z,99326.59
2022-08-25T20:35:02.847Z,99327.72
2022-08-25T20:37:34.085Z,99330.75
2022-08-25T20:40:03.210Z,99320.53
2022-08-25T20:42:32.391Z,99319.00
2022-08-25T20:45:02.522Z,99331.75
2022-08-25T20:47:31.663Z,99328.97
2022-08-25T20:50:05.968Z,99334.12
2022-08-25T20:52:36.399Z,99325.38
2022-08-25T20:55:08.778Z,99325.28
2022-08-25T20:57:38.026Z,99323.41
2022-08-25T21:00:10.084Z,99323.91
2022-08-25T21:02:39.145Z,99319.41
2022-08-25T21:05:08.792Z,99326.97
2022-08-25T21:07:37.436Z,99335.41
2022-08-25T21:10:10.379Z,99330.91
2022-08-25T21:12:39.652Z,99324.81
2022-08-25T21:15:11.682Z,99325.53
2022-08-25T21:17:40.890Z,99319.69
2022-08-25T21:20:10.886Z,99324.63
2022-08-25T21:22:39.909Z,99326.16
2022-08-25T21:25:12.481Z,99314.22
2022-08-25T21:27:41.385Z,99313.28
2022-08-25T21:30:14.808Z,99309.44
2022-08-25T21:32:52.702Z,99309.63
2022-08-25T21:35:22.975Z,99310.53
2022-08-25T21:37:53.139Z,99302.91
2022-08-25T21:40:23.065Z,99305.63
2022-08-25T21:42:52.724Z,99310.00
2022-08-25T21:45:22.759Z,99308.06
2022-08-25T21:47:51.738Z,99308.25
2022-08-25T21:50:22.127Z,99314.59
2022-08-25T21:52:54.692Z,99304.62
2022-08-25T21:55:24.131Z,99303.91
2022-08-25T21:57:54.690Z,99305.41
2022-08-25T22:00:25.263Z,99305.47
2022-08-25T22:02:54.034Z,99296.97
2022-08-25T22:05:23.660Z,99306.84
2022-08-25T22:07:52.303Z,99305.72
2022-08-25T22:10:21.707Z,99297.75
2022-08-25T22:12:51.729Z,99304.72
2022-08-25T22:15:20.560Z,99301.22
2022-08-25T22:17:54.816Z,99305.25
2022-08-25T22:20:23.466Z,99301.28
2022-08-25T22:22:54.352Z,99298.03
2022-08-25T22:25:23.825Z,99305.97
2022-08-25T22:27:56.627Z,99303.94
2022-08-25T22:30:27.677Z,99304.28
2022-08-25T22:33:00.162Z,99308.22
2022-08-25T22:35:29.999Z,99302.63
2022-08-25T22:37:59.267Z,99308.13
2022-08-25T22:40:28.288Z,99303.38
2022-08-25T22:42:57.759Z,99302.31
2022-08-25T22:45:27.876Z,99301.50
2022-08-25T22:47:57.022Z,99302.69
2022-08-25T22:50:27.453Z,99300.53
2022-08-25T22:52:56.455Z,99293.28
2022-08-25T22:55:25.210Z,99295.00
2022-08-25T22:57:57.189Z,99288.97
2022-08-25T23:00:25.978Z,99286.78
2022-08-25T23:02:54.667Z,99291.75
2022-08-25T23:05:23.681Z,99288.72
2022-08-25T23:07:56.191Z,99284.94
2022-08-25T23:10:25.861Z,99284.06
2022-08-25T23:12:54.496Z,99290.06
2022-08-25T23:15:23.290Z,99290.47
2022-08-25T23:17:52.194Z,99287.78
2022-08-25T23:20:45.728Z,99283.09
2022-08-25T23:23:16.164Z,99277.91
2022-08-25T23:25:45.091Z,99279.38
2022-08-25T23:28:14.202Z,99279.00
2022-08-25T23:30:44.953Z,99283.38
2022-08-25T23:33:26.945Z,99283.38
2022-08-25T23:36:00.301Z,99276.00
2022-08-25T23:38:30.788Z,99273.09
2022-08-25T23:40:59.598Z,99276.25
2022-08-25T23:43:28.207Z,99263.97
2022-08-25T23:45:57.270Z,99272.75
2022-08-25T23:48:26.659Z,99268.38
2022-08-25T23:50:55.326Z,99270.84
2022-08-25T23:53:24.374Z,99259.84
2022-08-25T23:55:54.700Z,99264.78
2022-08-25T23:58:25.200Z,99260.34
